Time;durP1;ratioP1;P1;durP2;ratioP2;P2;SDS_P1;SDS_P2;PMS_P1;PMS_P2;Temp;Humidity;BMP_temperature;BMP_pressure;BME280_temperature;BME280_humidity;BME280_pressure;Samples;Min_cycle;Max_cycle;Signal;HPM_P1;HPM_P2
2022/01/16 00:01:45;;;;;;;43.23;23.63;;;5.90;99.90;;;;;;5114433;28;20171;-74
2022/01/16 00:04:09;;;;;;;44.03;22.57;;;5.80;99.90;;;;;;5114159;28;20183;-73
2022/01/16 00:06:45;;;;;;;42.67;22.80;;;5.70;99.90;;;;;;5100940;28;20167;-74
2022/01/16 00:09:14;;;;;;;43.07;23.23;;;5.70;99.90;;;;;;5093820;28;20205;-74
2022/01/16 00:11:44;;;;;;;46.70;23.83;;;7.40;99.90;;;;;;5092364;28;20174;-75
2022/01/16 00:14:11;;;;;;;52.40;26.17;;;5.50;99.90;;;;;;5093699;28;20673;-75
2022/01/16 00:16:37;;;;;;;63.67;28.03;;;5.50;99.90;;;;;;5093376;28;20626;-73
2022/01/16 00:19:03;;;;;;;56.60;26.87;;;5.50;99.90;;;;;;5094410;28;20183;-74
2022/01/16 00:21:37;;;;;;;57.87;27.03;;;5.50;99.90;;;;;;5093197;28;20217;-76
2022/01/16 00:24:04;;;;;;;44.33;24.50;;;5.40;99.90;;;;;;5092151;28;20172;-74
2022/01/16 00:26:29;;;;;;;47.37;24.73;;;5.40;99.90;;;;;;5092054;28;20176;-74
2022/01/16 00:28:55;;;;;;;43.37;23.17;;;5.40;99.90;;;;;;5094012;28;20195;-74
2022/01/16 00:31:22;;;;;;;43.60;23.87;;;5.40;99.90;;;;;;5092023;28;20642;-79
2022/01/16 00:33:48;;;;;;;44.77;23.30;;;5.40;99.90;;;;;;5093398;28;20179;-80
2022/01/16 00:36:17;;;;;;;38.73;20.63;;;5.40;99.90;;;;;;5093089;28;20175;-76
2022/01/16 00:38:44;;;;;;;34.80;20.00;;;5.40;99.90;;;;;;5093207;28;20179;-76
2022/01/16 00:41:15;;;;;;;40.47;20.07;;;5.40;99.90;;;;;;5092860;28;20180;-76
2022/01/16 00:43:41;;;;;;;41.67;21.93;;;5.40;99.90;;;;;;5092685;28;20233;-75
2022/01/16 00:46:07;;;;;;;40.47;21.83;;;5.40;99.90;;;;;;5093263;28;20176;-75
2022/01/16 00:48:33;;;;;;;37.60;20.63;;;5.30;99.90;;;;;;5092696;28;20238;-74
2022/01/16 00:51:00;;;;;;;37.40;19.53;;;5.40;99.90;;;;;;5091409;28;20215;-75
2022/01/16 00:53:25;;;;;;;35.97;18.30;;;5.40;99.90;;;;;;5092874;28;20182;-74
2022/01/16 00:55:51;;;;;;;30.27;16.67;;;5.40;99.90;;;;;;5092827;28;20572;-79
2022/01/16 00:58:17;;;;;;;31.93;16.83;;;5.40;99.90;;;;;;5091573;28;20528;-79
2022/01/16 01:00:43;;;;;;;29.37;15.93;;;5.30;99.90;;;;;;5092843;28;20179;-79
2022/01/16 01:03:08;;;;;;;29.93;16.60;;;5.30;99.90;;;;;;5092517;28;20168;-79
2022/01/16 01:05:35;;;;;;;33.80;18.00;;;5.20;99.90;;;;;;5092869;28;20259;-78
2022/01/16 01:08:02;;;;;;;34.07;18.10;;;5.30;99.90;;;;;;5092363;28;20239;-77
2022/01/16 01:10:35;;;;;;;34.27;17.40;;;5.30;99.90;;;;;;5092526;28;20220;-75
2022/01/16 01:15:49;;;;;;;32.03;17.17;;;5.30;99.90;;;;;;5092555;28;20703;-75
2022/01/16 01:18:16;;;;;;;34.20;16.40;;;5.20;99.90;;;;;;5091081;28;20176;-75
2022/01/16 01:20:43;;;;;;;31.40;17.30;;;5.20;99.90;;;;;;5092369;28;20210;-74
2022/01/16 01:23:10;;;;;;;34.63;18.13;;;5.30;99.90;;;;;;5097776;28;20243;-77
2022/01/16 01:25:38;;;;;;;33.60;16.93;;;5.30;99.90;;;;;;5096788;28;20190;-77
2022/01/16 01:28:05;;;;;;;31.77;16.17;;;5.30;99.90;;;;;;5091255;28;20218;-76
2022/01/16 01:30:31;;;;;;;34.20;19.60;;;5.30;99.90;;;;;;5092297;28;20167;-76
2022/01/16 01:32:58;;;;;;;31.43;17.90;;;5.30;99.90;;;;;;5092117;28;20540;-77
2022/01/16 01:35:24;;;;;;;32.67;17.57;;;5.30;99.90;;;;;;5091911;28;20190;-77
2022/01/16 01:37:50;;;;;;;28.40;15.93;;;5.30;99.90;;;;;;5092163;28;20194;-75
2022/01/16 01:40:20;;;;;;;32.23;15.87;;;5.20;99.90;;;;;;5091965;28;20642;-75
2022/01/16 01:51:17;;;;;;;33.60;18.27;;;5.00;99.90;;;;;;5092238;28;20300;-75
2022/01/16 01:53:43;;;;;;;37.33;18.63;;;5.00;99.90;;;;;;5091782;28;20172;-75
2022/01/16 01:56:14;;;;;;;35.53;19.03;;;5.10;99.90;;;;;;5091665;28;20172;-75
2022/01/16 01:58:40;;;;;;;36.07;19.47;;;5.20;99.90;;;;;;5091736;28;20229;-77
2022/01/16 02:01:06;;;;;;;39.67;19.33;;;5.20;99.90;;;;;;5091730;28;20250;-77
2022/01/16 02:06:01;;;;;;;40.13;18.77;;;5.30;99.90;;;;;;5091551;28;20168;-75
2022/01/16 02:08:27;;;;;;;35.97;18.07;;;5.30;99.90;;;;;;5091526;28;20864;-77
2022/01/16 02:10:56;;;;;;;36.70;17.90;;;5.30;99.90;;;;;;5091734;28;20247;-78
2022/01/16 02:13:26;;;;;;;28.13;15.23;;;5.30;99.90;;;;;;5091372;28;20595;-77
2022/01/16 02:32:25;;;;;;;28.57;16.33;;;5.30;99.90;;;;;;5091361;28;20254;-78
2022/01/16 02:34:47;;;;;;;33.33;17.17;;;5.30;99.90;;;;;;5091272;28;20184;-79
2022/01/16 02:37:19;;;;;;;30.80;16.17;;;5.30;99.90;;;;;;5110314;28;20310;-80
2022/01/16 02:39:51;;;;;;;36.03;18.00;;;5.30;99.90;;;;;;5114164;28;20175;-79
2022/01/16 02:42:18;;;;;;;34.07;16.73;;;5.30;99.90;;;;;;5114758;28;20175;-79
2022/01/16 02:44:50;;;;;;;31.33;16.43;;;5.40;99.90;;;;;;5115800;28;20227;-77
2022/01/16 02:47:19;;;;;;;27.33;15.00;;;5.40;99.90;;;;;;5115621;28;20219;-77
2022/01/16 02:49:48;;;;;;;31.40;16.17;;;5.40;99.90;;;;;;5115719;27;20179;-76
2022/01/16 02:52:19;;;;;;;35.30;17.03;;;5.40;99.90;;;;;;5115970;28;20178;-75
2022/01/16 02:54:47;;;;;;;30.40;15.87;;;5.40;99.90;;;;;;5118031;28;20167;-74
2022/01/16 02:57:19;;;;;;;29.70;16.03;;;5.40;99.90;;;;;;5116405;28;20163;-74
2022/01/16 02:59:52;;;;;;;29.27;15.30;;;5.40;99.90;;;;;;5119193;28;20295;-74
2022/01/16 03:02:20;;;;;;;31.37;17.83;;;5.40;99.90;;;;;;5116892;28;20186;-73
2022/01/16 03:04:46;;;;;;;30.80;17.60;;;5.40;99.90;;;;;;5115581;28;20176;-73
2022/01/16 03:07:12;;;;;;;40.73;17.33;;;5.40;99.90;;;;;;5095443;28;20196;-74
2022/01/16 03:09:59;;;;;;;30.23;15.80;;;5.40;99.90;;;;;;5095003;28;20658;-66
2022/01/16 03:12:26;;;;;;;27.87;16.53;;;5.40;99.90;;;;;;5094633;28;20179;-76
2022/01/16 03:14:52;;;;;;;33.40;16.37;;;5.40;99.90;;;;;;5111908;28;20175;-78
2022/01/16 03:17:34;;;;;;;36.03;17.63;;;5.30;99.90;;;;;;5115160;28;20203;-76
2022/01/16 03:22:50;;;;;;;35.50;18.60;;;5.50;99.90;;;;;;5114745;28;20175;-78
2022/01/16 03:25:19;;;;;;;37.33;19.33;;;5.40;99.90;;;;;;5114117;28;20168;-78
2022/01/16 03:27:45;;;;;;;33.67;18.90;;;5.30;99.90;;;;;;5113654;28;20222;-78
2022/01/16 03:30:12;;;;;;;35.47;19.07;;;5.30;99.90;;;;;;5096744;28;20168;-78
2022/01/16 03:32:38;;;;;;;34.03;19.53;;;5.40;99.90;;;;;;5094557;28;20262;-76
2022/01/16 03:35:04;;;;;;;37.03;20.27;;;5.40;99.90;;;;;;5094727;28;20646;-78
2022/01/16 03:37:30;;;;;;;39.93;20.07;;;5.50;99.90;;;;;;5094301;28;20180;-77
2022/01/16 03:39:56;;;;;;;36.10;20.00;;;5.50;99.90;;;;;;5094366;28;20251;-78
2022/01/16 03:42:26;;;;;;;36.43;19.50;;;5.50;99.90;;;;;;5094345;28;20203;-78
2022/01/16 03:44:52;;;;;;;38.63;21.33;;;5.50;99.90;;;;;;5113248;28;20214;-78
2022/01/16 03:47:18;;;;;;;36.77;20.37;;;5.50;99.90;;;;;;5114620;28;20550;-78
2022/01/16 03:49:43;;;;;;;38.73;20.27;;;5.50;99.90;;;;;;5114626;28;20239;-78
2022/01/16 03:52:10;;;;;;;38.43;18.60;;;5.50;99.90;;;;;;5113932;28;20236;-78
2022/01/16 03:54:35;;;;;;;34.57;19.20;;;5.40;99.90;;;;;;5100439;27;20212;-79
2022/01/16 03:57:01;;;;;;;34.63;19.07;;;5.40;99.90;;;;;;5114581;28;20586;-79
2022/01/16 03:59:27;;;;;;;35.10;19.10;;;5.30;99.90;;;;;;5103204;28;20171;-81
2022/01/16 04:01:53;;;;;;;33.13;18.17;;;5.30;99.90;;;;;;5094082;28;20183;-64
2022/01/16 04:04:20;;;;;;;32.13;18.60;;;5.20;99.90;;;;;;5092535;28;20168;-76
2022/01/16 04:06:45;;;;;;;40.30;20.33;;;5.10;99.90;;;;;;5093626;28;20164;-73
2022/01/16 04:09:11;;;;;;;37.20;19.43;;;5.10;99.90;;;;;;5093842;28;20694;-74
2022/01/16 04:11:45;;;;;;;34.37;19.97;;;5.00;99.90;;;;;;5093588;28;20199;-74
2022/01/16 04:14:16;;;;;;;38.13;18.47;;;5.00;99.90;;;;;;5093632;28;20175;-74
2022/01/16 04:16:42;;;;;;;33.90;18.77;;;5.00;99.90;;;;;;5093678;28;20220;-74
2022/01/16 04:19:08;;;;;;;36.40;18.97;;;4.90;99.90;;;;;;5093607;28;20176;-74
2022/01/16 04:21:34;;;;;;;34.57;20.07;;;4.90;99.90;;;;;;5093406;28;20183;-74
2022/01/16 04:24:00;;;;;;;34.47;19.70;;;4.80;99.90;;;;;;5093354;28;20179;-74
2022/01/16 04:26:26;;;;;;;39.83;18.90;;;4.80;99.90;;;;;;5093239;28;20168;-73
2022/01/16 04:28:54;;;;;;;33.87;18.13;;;4.80;99.90;;;;;;5093351;28;20217;-75
2022/01/16 04:31:21;;;;;;;32.83;17.30;;;4.70;99.90;;;;;;5093391;28;20539;-73
2022/01/16 04:33:47;;;;;;;33.53;17.80;;;4.70;99.90;;;;;;5093301;28;20180;-78
2022/01/16 04:36:14;;;;;;;31.60;17.33;;;4.70;99.90;;;;;;5093405;28;20278;-78
2022/01/16 04:38:45;;;;;;;32.53;18.37;;;4.70;99.90;;;;;;5093322;28;20182;-77
2022/01/16 04:43:57;;;;;;;34.97;19.50;;;4.80;99.90;;;;;;5093420;28;20179;-76
2022/01/16 04:46:26;;;;;;;40.13;20.00;;;4.90;99.90;;;;;;5093178;28;20172;-76
2022/01/16 04:48:53;;;;;;;36.03;19.80;;;5.00;99.90;;;;;;5093000;28;20678;-76
2022/01/16 04:51:21;;;;;;;40.83;21.30;;;5.20;99.90;;;;;;5093011;28;20205;-75
2022/01/16 04:53:46;;;;;;;38.03;20.33;;;5.30;99.90;;;;;;5092820;28;20208;-75
2022/01/16 04:56:13;;;;;;;41.13;20.87;;;5.40;99.90;;;;;;5092878;28;20581;-74
2022/01/16 04:58:40;;;;;;;41.93;21.73;;;5.50;99.90;;;;;;5091502;28;20172;-73
2022/01/16 05:01:07;;;;;;;38.67;20.07;;;5.40;99.90;;;;;;5092642;28;20175;-75
2022/01/16 05:03:33;;;;;;;45.07;20.37;;;5.40;99.90;;;;;;5091572;28;20646;-75
2022/01/16 05:06:02;;;;;;;39.03;19.73;;;5.40;99.90;;;;;;5092335;28;20663;-75
2022/01/16 05:08:28;;;;;;;39.17;19.17;;;5.40;99.90;;;;;;5092573;28;20239;-75
2022/01/16 05:10:55;;;;;;;35.07;19.00;;;5.40;99.90;;;;;;5092695;28;20245;-75
2022/01/16 05:18:47;;;;;;;41.07;19.90;;;5.50;99.90;;;;;;5092985;28;20556;-80
2022/01/16 05:21:13;;;;;;;35.03;19.50;;;5.50;99.90;;;;;;5092526;28;20172;-78
2022/01/16 05:23:42;;;;;;;39.87;20.50;;;5.50;99.90;;;;;;5092782;28;20179;-78
2022/01/16 05:26:12;;;;;;;34.53;19.10;;;5.50;99.90;;;;;;5093633;28;20591;-77
2022/01/16 05:28:41;;;;;;;39.60;19.87;;;5.50;99.90;;;;;;5093810;28;20207;-77
2022/01/16 05:31:09;;;;;;;39.07;19.20;;;5.50;99.90;;;;;;5093644;28;20160;-78
2022/01/16 05:33:45;;;;;;;34.83;18.90;;;5.60;99.90;;;;;;5091379;28;20178;-78
2022/01/16 05:36:11;;;;;;;32.43;18.27;;;5.80;99.90;;;;;;5091162;28;20509;-78
2022/01/16 05:38:43;;;;;;;39.83;19.00;;;6.00;99.90;;;;;;5092796;28;20259;-79
2022/01/16 05:41:18;;;;;;;33.43;17.00;;;6.00;99.90;;;;;;5092381;28;20176;-79
2022/01/16 05:43:57;;;;;;;37.17;18.87;;;6.00;99.90;;;;;;5090956;28;20179;-76
2022/01/16 05:46:28;;;;;;;34.80;18.87;;;6.00;99.90;;;;;;5092546;28;20187;-76
2022/01/16 05:48:59;;;;;;;36.97;18.77;;;6.00;99.90;;;;;;5091599;28;20214;-76
2022/01/16 05:51:38;;;;;;;31.70;17.70;;;5.90;99.90;;;;;;5092442;28;20180;-76
2022/01/16 05:54:22;;;;;;;29.57;16.30;;;6.20;99.90;;;;;;5092092;28;20183;-74
2022/01/16 05:56:48;;;;;;;29.73;17.20;;;6.00;99.90;;;;;;5090772;28;20171;-75
2022/01/16 05:59:14;;;;;;;32.70;17.20;;;5.90;99.90;;;;;;5092011;28;20190;-75
2022/01/16 06:01:43;;;;;;;33.20;17.57;;;5.90;99.90;;;;;;5091799;28;20678;-75
2022/01/16 06:04:09;;;;;;;32.03;17.07;;;6.00;99.90;;;;;;5090425;28;20271;-76
2022/01/16 06:06:34;;;;;;;34.20;16.60;;;6.00;99.90;;;;;;5091843;28;20642;-76
2022/01/16 06:09:00;;;;;;;36.53;17.33;;;6.00;99.90;;;;;;5091777;28;20598;-75
2022/01/16 06:11:26;;;;;;;30.73;17.47;;;6.00;99.90;;;;;;5091554;28;20211;-76
2022/01/16 06:13:52;;;;;;;36.10;17.10;;;6.00;99.90;;;;;;5091544;28;20263;-76
2022/01/16 06:16:18;;;;;;;34.60;17.07;;;6.00;99.90;;;;;;5090120;28;20654;-76
2022/01/16 06:18:44;;;;;;;39.63;17.00;;;6.00;99.90;;;;;;5090250;28;20251;-76
2022/01/16 06:21:09;;;;;;;27.23;15.10;;;6.00;99.90;;;;;;5091505;28;20200;-75
2022/01/16 06:23:35;;;;;;;25.63;14.50;;;6.00;99.90;;;;;;5091364;28;20183;-75
2022/01/16 06:26:01;;;;;;;29.27;15.47;;;6.00;99.90;;;;;;5091144;28;20225;-75
2022/01/16 06:28:28;;;;;;;31.80;16.17;;;6.00;99.90;;;;;;5091297;28;20263;-74
2022/01/16 06:30:54;;;;;;;28.60;15.53;;;6.00;99.90;;;;;;5091318;28;20183;-74
2022/01/16 06:33:20;;;;;;;32.17;16.30;;;6.00;99.90;;;;;;5091323;28;20171;-75
2022/01/16 06:35:46;;;;;;;29.50;16.17;;;6.00;99.90;;;;;;5091254;28;20169;-75
2022/01/16 06:38:12;;;;;;;28.77;16.97;;;6.00;99.90;;;;;;5091354;28;20638;-75
2022/01/16 06:40:37;;;;;;;28.97;16.30;;;6.00;99.90;;;;;;5091117;28;20225;-75
2022/01/16 06:43:03;;;;;;;31.93;16.73;;;5.90;99.90;;;;;;5091336;28;20164;-75
2022/01/16 06:45:29;;;;;;;33.20;17.80;;;6.00;99.90;;;;;;5093614;28;20258;-77
2022/01/16 06:47:56;;;;;;;31.60;16.93;;;5.90;99.90;;;;;;5094761;28;20299;-75
2022/01/16 06:50:21;;;;;;;30.80;17.97;;;5.90;99.90;;;;;;5103251;28;20186;-76
2022/01/16 06:52:47;;;;;;;34.37;18.10;;;5.90;99.90;;;;;;5102657;28;20176;-76
2022/01/16 06:55:13;;;;;;;42.40;19.67;;;5.90;99.90;;;;;;5100305;28;20176;-76
2022/01/16 06:57:38;;;;;;;37.03;18.63;;;5.80;99.90;;;;;;5098709;28;20684;-77
2022/01/16 07:00:06;;;;;;;36.00;19.83;;;5.90;99.90;;;;;;5092093;28;20516;-78
2022/01/16 07:02:32;;;;;;;41.13;19.97;;;5.80;99.90;;;;;;5091345;28;20187;-77
2022/01/16 07:04:57;;;;;;;40.80;20.33;;;5.80;99.90;;;;;;5091435;28;20175;-75
2022/01/16 07:07:23;;;;;;;41.70;21.50;;;5.80;99.90;;;;;;5091075;28;20681;-72
2022/01/16 07:09:49;;;;;;;41.13;21.73;;;5.80;99.90;;;;;;5090976;28;20164;-78
2022/01/16 07:12:15;;;;;;;43.37;22.03;;;5.70;99.90;;;;;;5090971;28;20195;-77
2022/01/16 07:14:43;;;;;;;43.20;20.53;;;5.70;99.90;;;;;;5091250;28;20168;-76
2022/01/16 07:17:09;;;;;;;41.87;21.70;;;5.70;99.90;;;;;;5090891;28;20183;-78
2022/01/16 07:19:35;;;;;;;46.93;23.13;;;5.70;99.90;;;;;;5091839;28;20176;-77
2022/01/16 07:22:01;;;;;;;44.93;22.97;;;5.70;99.90;;;;;;5101892;28;20539;-77
2022/01/16 07:24:26;;;;;;;48.23;24.20;;;5.80;99.90;;;;;;5102432;28;20623;-77
2022/01/16 07:26:54;;;;;;;47.73;24.63;;;5.80;99.90;;;;;;5112566;28;20200;-76
2022/01/16 07:29:20;;;;;;;54.83;25.40;;;5.80;99.90;;;;;;5096121;28;20186;-76
2022/01/16 07:31:46;;;;;;;47.40;23.43;;;5.80;99.90;;;;;;5093503;28;20614;-77
2022/01/16 07:34:12;;;;;;;47.97;24.83;;;5.80;99.90;;;;;;5093318;28;20176;-77
2022/01/16 07:36:39;;;;;;;57.27;28.87;;;5.70;99.90;;;;;;5094416;28;20164;-78
2022/01/16 07:39:05;;;;;;;54.57;27.50;;;5.80;99.90;;;;;;5094478;28;20172;-75
2022/01/16 07:41:31;;;;;;;53.07;25.03;;;5.80;99.90;;;;;;5113233;28;20206;-76
2022/01/16 07:43:57;;;;;;;46.80;24.53;;;5.80;99.90;;;;;;5112816;28;20179;-75
2022/01/16 07:46:23;;;;;;;54.03;25.97;;;5.80;99.90;;;;;;5114824;28;20671;-74
2022/01/16 07:48:49;;;;;;;53.07;25.43;;;5.70;99.90;;;;;;5112837;28;20677;-78
2022/01/16 07:51:15;;;;;;;48.20;25.23;;;5.50;99.90;;;;;;5114687;28;20205;-79
2022/01/16 07:53:40;;;;;;;47.63;24.57;;;5.50;99.90;;;;;;5114397;28;20206;-79
2022/01/16 07:56:06;;;;;;;47.27;24.17;;;5.50;99.90;;;;;;5113708;28;20216;-80
2022/01/16 07:58:32;;;;;;;51.23;24.10;;;5.40;99.90;;;;;;5113700;28;20175;-80
2022/01/16 08:00:58;;;;;;;47.93;24.87;;;5.30;99.90;;;;;;5113044;28;20746;-80
2022/01/16 08:03:24;;;;;;;48.50;23.57;;;5.20;99.90;;;;;;5115517;28;20175;-80
2022/01/16 08:05:49;;;;;;;46.47;22.60;;;5.10;99.90;;;;;;5115060;28;20178;-81
2022/01/16 08:08:15;;;;;;;45.00;23.70;;;5.00;99.90;;;;;;5114964;28;20294;-81
2022/01/16 08:10:41;;;;;;;46.00;22.20;;;5.00;99.90;;;;;;5114936;28;20164;-81
2022/01/16 08:13:07;;;;;;;44.60;24.03;;;5.00;99.90;;;;;;5114608;28;20669;-81
2022/01/16 08:15:33;;;;;;;42.93;23.57;;;5.00;99.90;;;;;;5114072;28;20596;-75
2022/01/16 08:17:59;;;;;;;58.40;26.67;;;4.90;99.90;;;;;;5095740;28;20646;-72
2022/01/16 08:20:25;;;;;;;51.37;25.47;;;4.90;99.90;;;;;;5094630;28;20182;-78
2022/01/16 08:22:51;;;;;;;77.30;28.00;;;4.90;99.90;;;;;;5108169;28;20538;-79
2022/01/16 08:25:17;;;;;;;52.83;27.83;;;4.90;99.90;;;;;;5103606;28;20627;-79
2022/01/16 08:27:43;;;;;;;53.70;27.80;;;5.00;99.90;;;;;;5114011;28;20217;-78
2022/01/16 08:30:11;;;;;;;55.43;28.00;;;5.10;99.90;;;;;;5106905;28;20164;-78
2022/01/16 08:32:38;;;;;;;59.83;27.53;;;5.20;99.90;;;;;;5093840;28;20160;-78
2022/01/16 08:35:06;;;;;;;57.00;26.73;;;5.20;99.90;;;;;;5093660;28;20171;-78
2022/01/16 08:37:52;;;;;;;50.40;25.50;;;5.30;99.90;;;;;;5093099;28;20232;-82
2022/01/16 08:40:18;;;;;;;52.03;26.30;;;5.40;99.90;;;;;;5102673;28;20226;-81
2022/01/16 08:42:44;;;;;;;47.50;24.43;;;5.40;99.90;;;;;;5103107;28;20155;-74
2022/01/16 08:45:10;;;;;;;52.00;23.87;;;5.40;99.90;;;;;;5093409;28;20606;-75
2022/01/16 08:47:37;;;;;;;48.00;25.07;;;5.40;99.90;;;;;;5094012;28;20195;-71
2022/01/16 08:50:04;;;;;;;49.07;26.03;;;5.40;99.90;;;;;;5092286;28;20592;-71
2022/01/16 08:52:30;;;;;;;50.20;26.43;;;5.50;99.90;;;;;;5091755;28;20188;-71
2022/01/16 08:54:56;;;;;;;48.37;24.93;;;5.50;99.90;;;;;;5092191;28;20344;-71
2022/01/16 08:57:22;;;;;;;53.70;24.60;;;5.60;99.90;;;;;;5100310;28;20196;-72
2022/01/16 08:59:48;;;;;;;47.63;25.43;;;5.50;99.90;;;;;;5111715;28;20179;-72
2022/01/16 09:02:14;;;;;;;44.53;24.33;;;5.50;99.90;;;;;;5101157;28;20176;-71
2022/01/16 09:04:40;;;;;;;45.93;24.20;;;5.60;99.90;;;;;;5092829;28;20273;-72
2022/01/16 09:07:06;;;;;;;45.10;23.70;;;5.70;99.90;;;;;;5093750;28;20247;-71
2022/01/16 09:09:32;;;;;;;44.20;24.53;;;5.80;99.90;;;;;;5101536;28;20638;-70
2022/01/16 09:11:57;;;;;;;51.83;24.00;;;5.90;99.90;;;;;;5112930;28;20187;-72
2022/01/16 09:14:29;;;;;;;43.70;23.23;;;5.80;99.90;;;;;;5112832;28;20175;-72
2022/01/16 09:16:57;;;;;;;47.33;23.67;;;6.00;99.90;;;;;;5112021;28;20171;-68
2022/01/16 09:19:23;;;;;;;37.33;20.83;;;6.00;99.90;;;;;;5111058;28;20175;-63
2022/01/16 09:21:49;;;;;;;39.43;22.37;;;6.00;99.90;;;;;;5112692;28;20163;-63
2022/01/16 09:24:14;;;;;;;36.93;22.73;;;6.00;99.90;;;;;;5112681;28;20201;-64
2022/01/16 09:26:41;;;;;;;43.83;21.67;;;6.00;99.90;;;;;;5112436;28;20168;-64
2022/01/16 09:29:06;;;;;;;50.23;23.70;;;6.00;99.90;;;;;;5112196;28;20255;-70
2022/01/16 09:31:32;;;;;;;45.63;24.77;;;5.90;99.90;;;;;;5099931;28;20259;-70
2022/01/16 09:33:59;;;;;;;64.73;28.90;;;5.90;99.90;;;;;;5096623;28;20639;-68
2022/01/16 09:36:25;;;;;;;56.37;27.97;;;5.90;99.90;;;;;;5099903;28;20174;-69
2022/01/16 09:38:51;;;;;;;55.73;26.87;;;6.00;99.90;;;;;;5112311;28;20163;-70
2022/01/16 09:41:17;;;;;;;53.20;25.93;;;6.20;99.90;;;;;;5111048;28;20265;-69
2022/01/16 09:43:43;;;;;;;52.57;24.37;;;6.30;99.90;;;;;;5111602;28;20164;-66
2022/01/16 09:46:09;;;;;;;50.67;27.07;;;6.40;99.90;;;;;;5111868;28;20283;-64
2022/01/16 09:48:35;;;;;;;57.73;27.63;;;6.40;99.90;;;;;;5110138;28;20412;-65
2022/01/16 09:51:01;;;;;;;47.03;25.83;;;6.70;99.90;;;;;;5111826;28;20202;-77
2022/01/16 09:53:28;;;;;;;42.67;22.73;;;8.10;99.90;;;;;;5110758;28;20203;-65
2022/01/16 09:55:53;;;;;;;41.73;21.77;;;8.80;99.90;;;;;;5111617;28;20527;-71
2022/01/16 09:58:22;;;;;;;36.10;21.03;;;8.90;99.90;;;;;;5111172;28;20186;-73
2022/01/16 10:00:50;;;;;;;31.00;18.07;;;9.20;99.90;;;;;;5099495;28;20661;-74
2022/01/16 10:03:39;;;;;;;36.13;19.40;;;9.20;99.90;;;;;;5110474;28;20183;-70
2022/01/16 10:06:20;;;;;;;28.00;16.87;;;8.90;99.90;;;;;;5093061;28;20300;-70
2022/01/16 10:08:51;;;;;;;27.00;15.77;;;8.80;99.90;;;;;;5095759;28;20212;-72
2022/01/16 10:11:35;;;;;;;29.30;15.63;;;8.90;99.90;;;;;;5091598;28;20168;-67
2022/01/16 10:14:09;;;;;;;29.40;15.87;;;9.00;99.90;;;;;;5098062;28;20194;-72
2022/01/16 10:16:40;;;;;;;27.00;14.97;;;9.30;99.90;;;;;;5111377;28;20207;-68
2022/01/16 10:19:26;;;;;;;22.87;14.13;;;9.60;99.90;;;;;;5110737;28;20167;-68
2022/01/16 10:21:54;;;;;;;30.30;15.30;;;9.70;99.90;;;;;;5111808;28;20171;-68
2022/01/16 10:24:28;;;;;;;27.30;15.03;;;10.10;99.90;;;;;;5109746;28;20171;-68
2022/01/16 10:27:08;;;;;;;24.73;14.63;;;10.40;99.90;;;;;;5101900;28;20192;-68
2022/01/16 10:29:59;;;;;;;28.53;14.67;;;10.70;99.90;;;;;;5105511;28;20189;-68
2022/01/16 10:32:28;;;;;;;28.27;13.97;;;10.40;99.90;;;;;;5102301;28;20639;-67
2022/01/16 10:35:14;;;;;;;27.73;15.20;;;10.40;99.90;;;;;;5094518;28;20650;-67
2022/01/16 10:37:45;;;;;;;34.60;14.43;;;10.40;99.90;;;;;;5090967;28;20711;-67
2022/01/16 10:40:23;;;;;;;28.13;14.97;;;10.40;99.90;;;;;;5091030;28;20654;-67
2022/01/16 10:42:52;;;;;;;27.83;15.43;;;10.30;99.90;;;;;;5092762;28;20183;-67
2022/01/16 10:45:23;;;;;;;32.30;16.90;;;10.40;99.90;;;;;;5101219;28;20223;-67
2022/01/16 10:47:53;;;;;;;28.23;15.43;;;10.70;99.90;;;;;;5099110;28;20282;-68
2022/01/16 10:50:23;;;;;;;29.17;14.70;;;10.80;99.90;;;;;;5105378;28;20171;-68
2022/01/16 10:53:07;;;;;;;34.40;15.70;;;10.90;99.90;;;;;;5090545;28;20266;-67
2022/01/16 10:55:37;;;;;;;27.30;15.43;;;10.90;99.90;;;;;;5100522;28;20167;-77
2022/01/16 10:58:12;;;;;;;30.80;14.93;;;11.60;99.90;;;;;;5099482;28;20208;-77
2022/01/16 11:00:43;;;;;;;29.10;15.00;;;11.50;99.90;;;;;;5109517;28;20174;-75
2022/01/16 11:03:10;;;;;;;25.70;15.23;;;11.40;99.90;;;;;;5114944;28;20163;-77
2022/01/16 11:05:43;;;;;;;27.77;15.17;;;11.10;99.90;;;;;;5114196;28;20175;-79
2022/01/16 11:08:18;;;;;;;33.37;15.13;;;11.30;99.90;;;;;;5114534;28;20205;-77
2022/01/16 11:10:47;;;;;;;26.53;15.23;;;10.90;99.90;;;;;;5115342;28;20170;-78
2022/01/16 11:13:20;;;;;;;31.00;16.17;;;10.50;99.90;;;;;;5115145;28;20228;-76
2022/01/16 11:15:49;;;;;;;29.77;15.40;;;10.30;99.90;;;;;;5098903;28;20212;-78
2022/01/16 11:18:16;;;;;;;29.03;16.03;;;10.20;99.90;;;;;;5110514;28;20174;-77
2022/01/16 11:20:52;;;;;;;27.13;15.77;;;11.10;99.90;;;;;;5096911;28;20548;-76
2022/01/16 11:23:31;;;;;;;26.03;15.73;;;11.90;99.90;;;;;;5103715;28;20178;-76
2022/01/16 11:26:01;;;;;;;23.15;15.05;;;13.00;99.90;;;;;;5106567;28;20697;-77
2022/01/16 11:28:28;;;;;;;27.92;15.07;;;13.90;99.90;;;;;;5106057;28;20700;-77
2022/01/16 11:30:57;;;;;;;23.20;14.38;;;13.10;99.90;;;;;;5106805;28;20207;-77
2022/01/16 11:33:24;;;;;;;22.08;14.98;;;13.70;99.90;;;;;;5095794;28;20179;-76
2022/01/16 11:35:52;;;;;;;23.33;13.27;;;14.90;99.90;;;;;;5114471;27;20175;-73
2022/01/16 11:38:23;;;;;;;20.90;13.30;;;15.50;99.90;;;;;;5094499;28;20180;-76
2022/01/16 11:40:49;;;;;;;20.15;11.55;;;16.40;99.90;;;;;;5094722;28;20171;-82
2022/01/16 11:43:15;;;;;;;18.85;12.00;;;16.00;99.90;;;;;;5094455;28;20172;-76
2022/01/16 11:46:03;;;;;;;20.35;12.10;;;15.40;99.90;;;;;;5103802;28;20207;-75
2022/01/16 11:48:37;;;;;;;18.50;11.60;;;15.50;99.90;;;;;;5114787;28;20613;-75
2022/01/16 11:51:04;;;;;;;19.65;11.30;;;15.00;99.90;;;;;;5115083;28;20261;-77
2022/01/16 11:53:58;;;;;;;21.55;11.40;;;14.50;99.90;;;;;;5115650;28;20172;-77
2022/01/16 11:56:41;;;;;;;16.45;10.90;;;13.90;99.90;;;;;;5109205;28;20251;-77
2022/01/16 11:59:35;;;;;;;15.52;10.35;;;13.60;99.90;;;;;;5114502;28;20250;-74
2022/01/16 12:02:16;;;;;;;14.85;9.98;;;13.20;99.90;;;;;;5114289;28;20194;-76
2022/01/16 12:04:56;;;;;;;15.73;8.07;;;13.20;99.90;;;;;;5110123;28;20174;-75
2022/01/16 12:07:21;;;;;;;14.05;8.40;;;13.00;99.90;;;;;;5109777;28;20308;-74
2022/01/16 12:12:13;;;;;;;15.48;8.80;;;13.40;99.90;;;;;;5113515;28;20174;-75
2022/01/16 12:15:01;;;;;;;17.58;9.20;;;13.20;99.90;;;;;;5101253;28;20580;-76
2022/01/16 12:17:46;;;;;;;18.73;9.40;;;12.80;99.90;;;;;;5094607;28;20732;-76
2022/01/16 12:20:12;;;;;;;16.25;9.90;;;12.50;99.90;;;;;;5093429;28;20168;-76
2022/01/16 12:22:59;;;;;;;18.40;9.80;;;12.10;99.90;;;;;;5093700;28;20630;-77
2022/01/16 12:25:39;;;;;;;18.00;10.43;;;11.90;99.90;;;;;;5094082;28;20650;-72
2022/01/16 12:28:06;;;;;;;17.73;11.10;;;11.70;99.90;;;;;;5094683;28;20207;-66
2022/01/16 12:31:02;;;;;;;17.73;10.07;;;11.50;99.90;;;;;;5091984;28;20331;-65
2022/01/16 12:33:30;;;;;;;17.53;9.97;;;11.50;99.90;;;;;;5112087;28;20179;-65
2022/01/16 12:35:58;;;;;;;17.47;9.50;;;11.40;99.90;;;;;;5113515;28;20168;-65
2022/01/16 12:38:32;;;;;;;18.20;9.47;;;11.20;99.90;;;;;;5113031;28;20706;-66
2022/01/16 12:41:03;;;;;;;17.57;9.50;;;11.10;99.90;;;;;;5113210;28;20565;-65
2022/01/16 12:45:57;;;;;;;19.40;8.10;;;11.00;99.90;;;;;;5112249;28;20215;-66
2022/01/16 12:48:23;;;;;;;12.80;7.30;;;10.90;99.90;;;;;;5112757;28;20268;-65
2022/01/16 12:50:49;;;;;;;14.57;8.50;;;10.80;99.90;;;;;;5113218;28;20183;-66
2022/01/16 12:53:41;;;;;;;14.90;8.00;;;10.70;99.90;;;;;;5113377;28;20179;-66
2022/01/16 12:56:24;;;;;;;17.00;7.70;;;10.70;99.90;;;;;;5113183;28;20183;-66
2022/01/16 12:58:54;;;;;;;18.70;8.00;;;10.60;99.90;;;;;;5113042;28;20163;-65
2022/01/16 13:01:21;;;;;;;14.07;7.83;;;10.80;99.90;;;;;;5111008;28;20179;-66
2022/01/16 13:03:47;;;;;;;14.93;7.67;;;10.50;99.90;;;;;;5112677;28;20179;-66
2022/01/16 13:06:27;;;;;;;13.37;8.00;;;10.50;99.90;;;;;;5112947;28;20186;-66
2022/01/16 13:09:05;;;;;;;14.97;8.07;;;10.50;99.90;;;;;;5109515;28;20194;-66
2022/01/16 13:11:34;;;;;;;14.73;8.20;;;10.40;99.90;;;;;;5112796;28;20193;-66
2022/01/16 13:14:01;;;;;;;17.67;8.50;;;10.40;99.90;;;;;;5112196;28;20179;-66
2022/01/16 13:16:34;;;;;;;17.23;8.20;;;10.50;99.90;;;;;;5111413;28;20418;-66
2022/01/16 13:19:03;;;;;;;17.20;8.67;;;10.60;99.90;;;;;;5112628;28;20262;-66
2022/01/16 13:21:38;;;;;;;15.73;8.47;;;10.70;99.90;;;;;;5110797;28;20179;-66
2022/01/16 13:24:04;;;;;;;18.43;9.00;;;10.80;99.90;;;;;;5111927;28;20170;-66
2022/01/16 13:26:32;;;;;;;17.03;9.10;;;11.10;99.90;;;;;;5112219;28;20170;-66
2022/01/16 13:29:03;;;;;;;15.07;8.33;;;11.30;99.90;;;;;;5111063;28;20257;-66
2022/01/16 13:31:29;;;;;;;18.37;8.10;;;11.50;99.90;;;;;;5112243;28;20199;-66